Terminal Aerodrome Forecast
Issued by NWS Mt. Holly, NJ

Home | Current Version | Previous Version | Text Only | Print | Product List | Glossary On
Versions: 1 2 3 4 5 6 7 8 9 10 11 12 13 14 15 16 17 18 19 20 21 22
000
FTUS41 KPHI 301128
TAFACY
TAF
KACY 301128Z 3012/3112 VRB03KT P6SM SCT080
     FM301400 15008KT P6SM BKN060
      TEMPO 3017/3021 SHRA OVC035
     FM302100 15006KT P6SM SHRA OVC035
     FM310200 13006KT 5SM SHRA BR OVC025
     FM310500 12006KT 3SM SHRA BR OVC010=

USA.gov is the U.S. government's official web portal to all federal, state and local government web resources and services.